sensor_id;sensor_type;location;lat;lon;timestamp;pressure;altitude;pressure_sealevel;temperature
27826;BMP280;15077;49.704;9.908;2022-12-07T00:01:27;98172.28;;;8.25
27826;BMP280;15077;49.704;9.908;2022-12-07T00:03:55;98175.72;;;8.22
27826;BMP280;15077;49.704;9.908;2022-12-07T00:06:29;98166.56;;;8.20
27826;BMP280;15077;49.704;9.908;2022-12-07T00:08:55;98165.72;;;8.20
27826;BMP280;15077;49.704;9.908;2022-12-07T00:11:24;98166.66;;;8.17
27826;BMP280;15077;49.704;9.908;2022-12-07T00:13:57;98162.50;;;8.15
27826;BMP280;15077;49.704;9.908;2022-12-07T00:16:26;98163.41;;;8.12
27826;BMP280;15077;49.704;9.908;2022-12-07T00:18:56;98162.63;;;8.10
27826;BMP280;15077;49.704;9.908;2022-12-07T00:21:33;98169.41;;;8.08
27826;BMP280;15077;49.704;9.908;2022-12-07T00:23:59;98161.94;;;8.05
27826;BMP280;15077;49.704;9.908;2022-12-07T00:26:34;98160.28;;;8.04
27826;BMP280;15077;49.704;9.908;2022-12-07T00:29:18;98163.69;;;8.02
27826;BMP280;15077;49.704;9.908;2022-12-07T00:31:45;98152.09;;;7.96
27826;BMP280;15077;49.704;9.908;2022-12-07T00:34:20;98158.88;;;7.94
27826;BMP280;15077;49.704;9.908;2022-12-07T00:36:47;98153.09;;;7.91
27826;BMP280;15077;49.704;9.908;2022-12-07T00:39:13;98150.63;;;7.89
27826;BMP280;15077;49.704;9.908;2022-12-07T00:41:39;98148.97;;;7.88
27826;BMP280;15077;49.704;9.908;2022-12-07T00:44:05;98152.38;;;7.87
27826;BMP280;15077;49.704;9.908;2022-12-07T00:46:31;98155.75;;;7.86
27826;BMP280;15077;49.704;9.908;2022-12-07T00:48:57;98152.41;;;7.86
27826;BMP280;15077;49.704;9.908;2022-12-07T00:51:25;98147.31;;;7.87
27826;BMP280;15077;49.704;9.908;2022-12-07T00:53:52;98146.47;;;7.87
27826;BMP280;15077;49.704;9.908;2022-12-07T00:56:24;98144.81;;;7.87
27826;BMP280;15077;49.704;9.908;2022-12-07T00:59:02;98136.38;;;7.87
27826;BMP280;15077;49.704;9.908;2022-12-07T01:01:35;98134.75;;;7.86
27826;BMP280;15077;49.704;9.908;2022-12-07T01:04:03;98129.78;;;7.83
27826;BMP280;15077;49.704;9.908;2022-12-07T01:06:35;98123.09;;;7.82
27826;BMP280;15077;49.704;9.908;2022-12-07T01:09:01;98128.22;;;7.79
27826;BMP280;15077;49.704;9.908;2022-12-07T01:11:30;98126.56;;;7.78
27826;BMP280;15077;49.704;9.908;2022-12-07T01:13:58;98132.47;;;7.77
27826;BMP280;15077;49.704;9.908;2022-12-07T01:16:29;98130.00;;;7.75
27826;BMP280;15077;49.704;9.908;2022-12-07T01:18:57;98136.75;;;7.75
27826;BMP280;15077;49.704;9.908;2022-12-07T01:21:28;98129.22;;;7.73
27826;BMP280;15077;49.704;9.908;2022-12-07T01:23:57;98126.78;;;7.71
27826;BMP280;15077;49.704;9.908;2022-12-07T01:26:24;98121.81;;;7.68
27826;BMP280;15077;49.704;9.908;2022-12-07T01:28:51;98116.88;;;7.65
27826;BMP280;15077;49.704;9.908;2022-12-07T01:31:25;98120.25;;;7.64
27826;BMP280;15077;49.704;9.908;2022-12-07T01:33:55;98119.47;;;7.62
27826;BMP280;15077;49.704;9.908;2022-12-07T01:36:23;98118.66;;;7.61
27826;BMP280;15077;49.704;9.908;2022-12-07T01:38:54;98118.72;;;7.60
27826;BMP280;15077;49.704;9.908;2022-12-07T01:41:24;98122.13;;;7.57
27826;BMP280;15077;49.704;9.908;2022-12-07T01:44:29;98119.84;;;7.50
27826;BMP280;15077;49.704;9.908;2022-12-07T01:47:03;98123.22;;;7.49
27826;BMP280;15077;49.704;9.908;2022-12-07T01:49:44;98132.53;;;7.47
27826;BMP280;15077;49.704;9.908;2022-12-07T01:52:19;98129.22;;;7.45
27826;BMP280;15077;49.704;9.908;2022-12-07T01:54:50;98123.28;;;7.46
27826;BMP280;15077;49.704;9.908;2022-12-07T01:57:18;98124.19;;;7.45
27826;BMP280;15077;49.704;9.908;2022-12-07T01:59:47;98123.28;;;7.46
27826;BMP280;15077;49.704;9.908;2022-12-07T02:02:26;98109.84;;;7.47
27826;BMP280;15077;49.704;9.908;2022-12-07T02:04:54;98103.13;;;7.46
27826;BMP280;15077;49.704;9.908;2022-12-07T02:07:22;98099.75;;;7.47
27826;BMP280;15077;49.704;9.908;2022-12-07T02:09:48;98109.06;;;7.45
27826;BMP280;15077;49.704;9.908;2022-12-07T02:12:14;98110.66;;;7.47
27826;BMP280;15077;49.704;9.908;2022-12-07T02:14:40;98113.22;;;7.46
27826;BMP280;15077;49.704;9.908;2022-12-07T02:17:32;98118.34;;;7.43
27826;BMP280;15077;49.704;9.908;2022-12-07T02:20:32;98102.53;;;7.38
27826;BMP280;15077;49.704;9.908;2022-12-07T02:29:45;98096.84;;;7.30
27826;BMP280;15077;49.704;9.908;2022-12-07T02:32:20;98097.69;;;7.30
27826;BMP280;15077;49.704;9.908;2022-12-07T02:34:56;98095.91;;;7.34
27826;BMP280;15077;49.704;9.908;2022-12-07T02:40:20;98079.16;;;7.31
27826;BMP280;15077;49.704;9.908;2022-12-07T02:42:55;98085.03;;;7.32
27826;BMP280;15077;49.704;9.908;2022-12-07T02:45:25;98075.72;;;7.34
27826;BMP280;15077;49.704;9.908;2022-12-07T02:47:58;98078.25;;;7.34
27826;BMP280;15077;49.704;9.908;2022-12-07T02:50:26;98093.47;;;7.31
27826;BMP280;15077;49.704;9.908;2022-12-07T02:52:52;98085.03;;;7.32
27826;BMP280;15077;49.704;9.908;2022-12-07T02:55:25;98083.28;;;7.34
27826;BMP280;15077;49.704;9.908;2022-12-07T03:16:19;98077.66;;;7.26
27826;BMP280;15077;49.704;9.908;2022-12-07T03:19:02;98067.53;;;7.27
27826;BMP280;15077;49.704;9.908;2022-12-07T03:21:37;98073.69;;;7.18
27826;BMP280;15077;49.704;9.908;2022-12-07T03:24:13;98075.22;;;7.23
27826;BMP280;15077;49.704;9.908;2022-12-07T03:26:47;98066.78;;;7.24
27826;BMP280;15077;49.704;9.908;2022-12-07T03:29:29;98062.63;;;7.23
27826;BMP280;15077;49.704;9.908;2022-12-07T03:32:06;98071.00;;;7.23
27826;BMP280;15077;49.704;9.908;2022-12-07T03:34:46;98061.72;;;7.24
27826;BMP280;15077;49.704;9.908;2022-12-07T03:37:26;98056.63;;;7.25
27826;BMP280;15077;49.704;9.908;2022-12-07T03:40:22;98050.00;;;7.23
27826;BMP280;15077;49.704;9.908;2022-12-07T03:42:52;98045.78;;;7.23
27826;BMP280;15077;49.704;9.908;2022-12-07T03:45:28;98050.00;;;7.23
27826;BMP280;15077;49.704;9.908;2022-12-07T03:53:44;98054.13;;;7.25
27826;BMP280;15077;49.704;9.908;2022-12-07T03:56:12;98050.75;;;7.26
27826;BMP280;15077;49.704;9.908;2022-12-07T03:58:40;98054.88;;;7.29
27826;BMP280;15077;49.704;9.908;2022-12-07T04:01:07;98053.22;;;7.28
27826;BMP280;15077;49.704;9.908;2022-12-07T04:03:32;98049.84;;;7.29
27826;BMP280;15077;49.704;9.908;2022-12-07T04:05:59;98043.13;;;7.28
27826;BMP280;15077;49.704;9.908;2022-12-07T04:08:25;98054.88;;;7.29
27826;BMP280;15077;49.704;9.908;2022-12-07T04:10:51;98049.00;;;7.28
27826;BMP280;15077;49.704;9.908;2022-12-07T04:13:17;98049.88;;;7.27
27826;BMP280;15077;49.704;9.908;2022-12-07T04:15:42;98049.94;;;7.26
27826;BMP280;15077;49.704;9.908;2022-12-07T04:18:08;98044.00;;;7.27
27826;BMP280;15077;49.704;9.908;2022-12-07T04:20:34;98049.00;;;7.28
27826;BMP280;15077;49.704;9.908;2022-12-07T04:22:59;98054.97;;;7.26
27826;BMP280;15077;49.704;9.908;2022-12-07T04:25:25;98049.94;;;7.26
27826;BMP280;15077;49.704;9.908;2022-12-07T04:27:51;98045.69;;;7.26
27826;BMP280;15077;49.704;9.908;2022-12-07T04:30:18;98036.47;;;7.25
27826;BMP280;15077;49.704;9.908;2022-12-07T04:32:44;98040.75;;;7.23
27826;BMP280;15077;49.704;9.908;2022-12-07T04:35:10;98038.28;;;7.22
27826;BMP280;15077;49.704;9.908;2022-12-07T04:37:36;98047.56;;;7.20
27826;BMP280;15077;49.704;9.908;2022-12-07T04:40:01;98051.00;;;7.18
27826;BMP280;15077;49.704;9.908;2022-12-07T04:42:28;98046.78;;;7.18
27826;BMP280;15077;49.704;9.908;2022-12-07T04:44:53;98044.25;;;7.18
27826;BMP280;15077;49.704;9.908;2022-12-07T04:47:20;98046.78;;;7.18
27826;BMP280;15077;49.704;9.908;2022-12-07T04:49:46;98042.59;;;7.19
27826;BMP280;15077;49.704;9.908;2022-12-07T04:52:12;98039.22;;;7.18
27826;BMP280;15077;49.704;9.908;2022-12-07T04:54:37;98042.63;;;7.17
27826;BMP280;15077;49.704;9.908;2022-12-07T04:57:03;98038.44;;;7.16
27826;BMP280;15077;49.704;9.908;2022-12-07T04:59:29;98042.72;;;7.14
27826;BMP280;15077;49.704;9.908;2022-12-07T05:01:54;98043.56;;;7.13
27826;BMP280;15077;49.704;9.908;2022-12-07T05:04:20;98037.72;;;7.13
27826;BMP280;15077;49.704;9.908;2022-12-07T05:06:46;98044.44;;;7.12
27826;BMP280;15077;49.704;9.908;2022-12-07T05:09:11;98032.72;;;7.11
27826;BMP280;15077;49.704;9.908;2022-12-07T05:11:37;98043.63;;;7.12
27826;BMP280;15077;49.704;9.908;2022-12-07T05:14:08;98041.91;;;7.12
27826;BMP280;15077;49.704;9.908;2022-12-07T05:16:34;98043.66;;;7.10
27826;BMP280;15077;49.704;9.908;2022-12-07T05:19:00;98036.06;;;7.12
27826;BMP280;15077;49.704;9.908;2022-12-07T05:21:25;98041.13;;;7.10
27826;BMP280;15077;49.704;9.908;2022-12-07T05:23:51;98052.00;;;7.12
27826;BMP280;15077;49.704;9.908;2022-12-07T05:26:18;98045.22;;;7.14
27826;BMP280;15077;49.704;9.908;2022-12-07T05:28:43;98050.28;;;7.14
27826;BMP280;15077;49.704;9.908;2022-12-07T05:31:09;98061.16;;;7.15
27826;BMP280;15077;49.704;9.908;2022-12-07T05:33:35;98058.69;;;7.13
27826;BMP280;15077;49.704;9.908;2022-12-07T05:36:01;98058.69;;;7.13
27826;BMP280;15077;49.704;9.908;2022-12-07T05:38:33;98045.31;;;7.11
27826;BMP280;15077;49.704;9.908;2022-12-07T05:41:05;98042.78;;;7.11
27826;BMP280;15077;49.704;9.908;2022-12-07T05:43:31;98043.66;;;7.10
27826;BMP280;15077;49.704;9.908;2022-12-07T05:45:58;98036.94;;;7.09
27826;BMP280;15077;49.704;9.908;2022-12-07T05:48:25;98034.38;;;7.11
27826;BMP280;15077;49.704;9.908;2022-12-07T05:50:52;98038.63;;;7.10
27826;BMP280;15077;49.704;9.908;2022-12-07T05:53:18;98041.13;;;7.10
27826;BMP280;15077;49.704;9.908;2022-12-07T05:55:44;98026.97;;;7.06
27826;BMP280;15077;49.704;9.908;2022-12-07T05:58:10;98033.78;;;7.03
27826;BMP280;15077;49.704;9.908;2022-12-07T06:00:55;98032.16;;;7.00
27826;BMP280;15077;49.704;9.908;2022-12-07T06:03:21;98038.94;;;6.98
27826;BMP280;15077;49.704;9.908;2022-12-07T06:05:47;98034.78;;;6.97
27826;BMP280;15077;49.704;9.908;2022-12-07T06:08:13;98030.63;;;6.96
27826;BMP280;15077;49.704;9.908;2022-12-07T06:10:41;98025.59;;;6.96
27826;BMP280;15077;49.704;9.908;2022-12-07T06:13:08;98031.47;;;6.95
27826;BMP280;15077;49.704;9.908;2022-12-07T06:15:37;98029.78;;;6.96
27826;BMP280;15077;49.704;9.908;2022-12-07T06:18:03;98037.38;;;6.94
27826;BMP280;15077;49.704;9.908;2022-12-07T06:20:29;98040.78;;;6.93
27826;BMP280;15077;49.704;9.908;2022-12-07T06:22:55;98029.03;;;6.92
27826;BMP280;15077;49.704;9.908;2022-12-07T06:25:20;98029.78;;;6.96
27826;BMP280;15077;49.704;9.908;2022-12-07T06:27:46;98016.31;;;6.97
27826;BMP280;15077;49.704;9.908;2022-12-07T06:30:12;98027.22;;;6.97
27826;BMP280;15077;49.704;9.908;2022-12-07T06:32:38;98032.25;;;6.97
27826;BMP280;15077;49.704;9.908;2022-12-07T06:35:04;98026.34;;;6.98
27826;BMP280;15077;49.704;9.908;2022-12-07T06:37:30;98029.72;;;6.97
27826;BMP280;15077;49.704;9.908;2022-12-07T06:39:55;98038.94;;;6.98
27826;BMP280;15077;49.704;9.908;2022-12-07T06:42:21;98039.81;;;6.97
27826;BMP280;15077;49.704;9.908;2022-12-07T06:44:47;98039.81;;;6.97
27826;BMP280;15077;49.704;9.908;2022-12-07T06:47:13;98047.38;;;6.97
27826;BMP280;15077;49.704;9.908;2022-12-07T06:49:38;98048.22;;;6.98
27826;BMP280;15077;49.704;9.908;2022-12-07T06:52:04;98050.69;;;6.99
27826;BMP280;15077;49.704;9.908;2022-12-07T06:54:31;98050.69;;;6.99
27826;BMP280;15077;49.704;9.908;2022-12-07T06:56:57;98046.47;;;7.00
27826;BMP280;15077;49.704;9.908;2022-12-07T06:59:22;98043.09;;;7.01
27826;BMP280;15077;49.704;9.908;2022-12-07T07:01:48;98043.91;;;7.01
27826;BMP280;15077;49.704;9.908;2022-12-07T07:04:14;98032.97;;;7.02
27826;BMP280;15077;49.704;9.908;2022-12-07T07:06:40;98045.56;;;7.02
27826;BMP280;15077;49.704;9.908;2022-12-07T07:09:06;98051.34;;;7.06
27826;BMP280;15077;49.704;9.908;2022-12-07T07:11:31;98039.56;;;7.06
27826;BMP280;15077;49.704;9.908;2022-12-07T07:13:57;98035.38;;;7.07
27826;BMP280;15077;49.704;9.908;2022-12-07T07:16:29;98045.41;;;7.08
27826;BMP280;15077;49.704;9.908;2022-12-07T07:18:56;98036.19;;;7.07
27826;BMP280;15077;49.704;9.908;2022-12-07T07:21:22;98038.69;;;7.07
27826;BMP280;15077;49.704;9.908;2022-12-07T07:23:47;98055.47;;;7.08
27826;BMP280;15077;49.704;9.908;2022-12-07T07:26:13;98057.13;;;7.09
27826;BMP280;15077;49.704;9.908;2022-12-07T07:28:39;98055.44;;;7.10
27826;BMP280;15077;49.704;9.908;2022-12-07T07:31:05;98054.47;;;7.14
27826;BMP280;15077;49.704;9.908;2022-12-07T07:33:30;98060.34;;;7.14
27826;BMP280;15077;49.704;9.908;2022-12-07T07:35:56;98055.13;;;7.20
27826;BMP280;15077;49.704;9.908;2022-12-07T07:38:22;98061.78;;;7.22
27826;BMP280;15077;49.704;9.908;2022-12-07T07:40:47;98059.22;;;7.24
27826;BMP280;15077;49.704;9.908;2022-12-07T07:43:13;98059.22;;;7.24
27826;BMP280;15077;49.704;9.908;2022-12-07T07:45:39;98053.31;;;7.25
27826;BMP280;15077;49.704;9.908;2022-12-07T07:48:06;98052.44;;;7.26
27826;BMP280;15077;49.704;9.908;2022-12-07T07:50:31;98055.78;;;7.26
27826;BMP280;15077;49.704;9.908;2022-12-07T07:52:57;98062.50;;;7.27
27826;BMP280;15077;49.704;9.908;2022-12-07T07:55:23;98054.03;;;7.28
27826;BMP280;15077;49.704;9.908;2022-12-07T07:57:49;98064.97;;;7.29
27826;BMP280;15077;49.704;9.908;2022-12-07T08:00:16;98062.31;;;7.33
27826;BMP280;15077;49.704;9.908;2022-12-07T08:02:43;98051.34;;;7.34
27826;BMP280;15077;49.704;9.908;2022-12-07T08:05:10;98054.63;;;7.38
27826;BMP280;15077;49.704;9.908;2022-12-07T08:07:36;98058.75;;;7.40
27826;BMP280;15077;49.704;9.908;2022-12-07T08:10:03;98064.53;;;7.44
27826;BMP280;15077;49.704;9.908;2022-12-07T08:12:29;98070.38;;;7.44
27826;BMP280;15077;49.704;9.908;2022-12-07T08:14:54;98061.16;;;7.45
27826;BMP280;15077;49.704;9.908;2022-12-07T08:17:20;98058.53;;;7.48
27826;BMP280;15077;49.704;9.908;2022-12-07T08:19:46;98066.09;;;7.48
27826;BMP280;15077;49.704;9.908;2022-12-07T08:22:12;98064.34;;;7.50
27826;BMP280;15077;49.704;9.908;2022-12-07T08:24:37;98064.34;;;7.50
27826;BMP280;15077;49.704;9.908;2022-12-07T08:27:03;98065.13;;;7.52
27826;BMP280;15077;49.704;9.908;2022-12-07T08:29:30;98060.03;;;7.53
27826;BMP280;15077;49.704;9.908;2022-12-07T08:31:56;98070.06;;;7.55
27826;BMP280;15077;49.704;9.908;2022-12-07T08:34:21;98070.88;;;7.57
27826;BMP280;15077;49.704;9.908;2022-12-07T08:36:47;98078.41;;;7.58
27826;BMP280;15077;49.704;9.908;2022-12-07T08:39:13;98079.13;;;7.62
27826;BMP280;15077;49.704;9.908;2022-12-07T08:41:39;98077.38;;;7.64
27826;BMP280;15077;49.704;9.908;2022-12-07T08:44:05;98083.13;;;7.69
27826;BMP280;15077;49.704;9.908;2022-12-07T08:46:39;98076.34;;;7.71
27826;BMP280;15077;49.704;9.908;2022-12-07T08:49:22;98075.47;;;7.72
27826;BMP280;15077;49.704;9.908;2022-12-07T08:51:50;98077.09;;;7.72
27826;BMP280;15077;49.704;9.908;2022-12-07T08:54:18;98079.44;;;7.78
27826;BMP280;15077;49.704;9.908;2022-12-07T08:56:46;98076.88;;;7.80
27826;BMP280;15077;49.704;9.908;2022-12-07T08:59:15;98084.41;;;7.81
27826;BMP280;15077;49.704;9.908;2022-12-07T09:01:42;98085.19;;;7.83
27826;BMP280;15077;49.704;9.908;2022-12-07T09:04:07;98090.97;;;7.87
27826;BMP280;15077;49.704;9.908;2022-12-07T09:06:34;98093.44;;;7.88
27826;BMP280;15077;49.704;9.908;2022-12-07T09:09:01;98074.94;;;7.89
27826;BMP280;15077;49.704;9.908;2022-12-07T09:11:28;98079.09;;;7.90
27826;BMP280;15077;49.704;9.908;2022-12-07T09:13:53;98079.91;;;7.91
27826;BMP280;15077;49.704;9.908;2022-12-07T09:16:19;98074.84;;;7.92
27826;BMP280;15077;49.704;9.908;2022-12-07T09:18:45;98078.13;;;7.94
27826;BMP280;15077;49.704;9.908;2022-12-07T09:21:11;98086.44;;;7.98
27826;BMP280;15077;49.704;9.908;2022-12-07T09:23:36;98090.56;;;8.00
27826;BMP280;15077;49.704;9.908;2022-12-07T09:26:04;98085.31;;;8.06
27826;BMP280;15077;49.704;9.908;2022-12-07T09:28:31;98087.75;;;8.09
27826;BMP280;15077;49.704;9.908;2022-12-07T09:30:56;98088.47;;;8.14
27826;BMP280;15077;49.704;9.908;2022-12-07T09:33:24;98095.13;;;8.17
27826;BMP280;15077;49.704;9.908;2022-12-07T09:35:53;98086.63;;;8.19
27826;BMP280;15077;49.704;9.908;2022-12-07T09:38:20;98088.25;;;8.22
27826;BMP280;15077;49.704;9.908;2022-12-07T09:40:48;98088.19;;;8.23
27826;BMP280;15077;49.704;9.908;2022-12-07T09:43:25;98077.09;;;8.27
27826;BMP280;15077;49.704;9.908;2022-12-07T09:45:54;98087.91;;;8.32
27826;BMP280;15077;49.704;9.908;2022-12-07T09:48:36;98076.03;;;8.34
27826;BMP280;15077;49.704;9.908;2022-12-07T09:51:19;98076.78;;;8.37
27826;BMP280;15077;49.704;9.908;2022-12-07T09:53:48;98068.16;;;8.43
27826;BMP280;15077;49.704;9.908;2022-12-07T09:56:17;98076.53;;;8.45
27826;BMP280;15077;49.704;9.908;2022-12-07T09:58:44;98072.22;;;8.48
27826;BMP280;15077;49.704;9.908;2022-12-07T10:01:20;98062.81;;;8.52
27826;BMP280;15077;49.704;9.908;2022-12-07T10:03:53;98066.13;;;8.54
27826;BMP280;15077;49.704;9.908;2022-12-07T10:06:20;98065.25;;;8.55
27826;BMP280;15077;49.704;9.908;2022-12-07T10:08:47;98057.56;;;8.58
27826;BMP280;15077;49.704;9.908;2022-12-07T10:11:13;98062.47;;;8.62
27826;BMP280;15077;49.704;9.908;2022-12-07T10:13:51;98052.19;;;8.67
27826;BMP280;15077;49.704;9.908;2022-12-07T10:18:54;98057.94;;;8.71
27826;BMP280;15077;49.704;9.908;2022-12-07T10:21:26;98056.97;;;8.75
27826;BMP280;15077;49.704;9.908;2022-12-07T10:29:50;98058.19;;;8.88
27826;BMP280;15077;49.704;9.908;2022-12-07T10:34:41;98061.09;;;9.02
27826;BMP280;15077;49.704;9.908;2022-12-07T10:39:52;98053.50;;;9.25
27826;BMP280;15077;49.704;9.908;2022-12-07T10:42:27;98058.94;;;9.37
27826;BMP280;15077;49.704;9.908;2022-12-07T10:48:19;98056.09;;;9.46
27826;BMP280;15077;49.704;9.908;2022-12-07T10:51:39;98056.13;;;9.45
27826;BMP280;15077;49.704;9.908;2022-12-07T10:54:43;98050.13;;;9.47
27826;BMP280;15077;49.704;9.908;2022-12-07T11:00:32;98051.72;;;9.50
27826;BMP280;15077;49.704;9.908;2022-12-07T11:08:57;98047.66;;;9.46
27826;BMP280;15077;49.704;9.908;2022-12-07T11:11:54;98041.72;;;9.47
27826;BMP280;15077;49.704;9.908;2022-12-07T11:14:34;98037.53;;;9.46
27826;BMP280;15077;49.704;9.908;2022-12-07T11:17:31;98035.06;;;9.44
27826;BMP280;15077;49.704;9.908;2022-12-07T11:31:13;98019.00;;;9.45
27826;BMP280;15077;49.704;9.908;2022-12-07T11:33:51;98010.50;;;9.48
27826;BMP280;15077;49.704;9.908;2022-12-07T11:36:41;98013.91;;;9.47
27826;BMP280;15077;49.704;9.908;2022-12-07T11:39:32;98008.94;;;9.44
27826;BMP280;15077;49.704;9.908;2022-12-07T11:42:11;98014.66;;;9.49
27826;BMP280;15077;49.704;9.908;2022-12-07T11:48:00;98013.84;;;9.48
27826;BMP280;15077;49.704;9.908;2022-12-07T11:53:05;98000.19;;;9.52
27826;BMP280;15077;49.704;9.908;2022-12-07T11:55:53;97996.81;;;9.52
27826;BMP280;15077;49.704;9.908;2022-12-07T11:58:38;98001.88;;;9.52
27826;BMP280;15077;49.704;9.908;2022-12-07T12:01:18;97999.28;;;9.53
27826;BMP280;15077;49.704;9.908;2022-12-07T12:03:56;98001.84;;;9.53
27826;BMP280;15077;49.704;9.908;2022-12-07T12:06:23;97996.72;;;9.55
27826;BMP280;15077;49.704;9.908;2022-12-07T12:09:11;97990.03;;;9.54
27826;BMP280;15077;49.704;9.908;2022-12-07T12:18:05;97977.38;;;9.54
27826;BMP280;15077;49.704;9.908;2022-12-07T12:20:46;97979.66;;;9.60
27826;BMP280;15077;49.704;9.908;2022-12-07T12:23:19;97982.78;;;9.66
27826;BMP280;15077;49.704;9.908;2022-12-07T12:25:50;97979.94;;;9.73
27826;BMP280;15077;49.704;9.908;2022-12-07T12:33:37;97975.66;;;9.97
27826;BMP280;15077;49.704;9.908;2022-12-07T12:39:16;97971.81;;;10.08
27826;BMP280;15077;49.704;9.908;2022-12-07T12:47:40;97964.16;;;10.10
27826;BMP280;15077;49.704;9.908;2022-12-07T12:50:22;97958.19;;;10.11
27826;BMP280;15077;49.704;9.908;2022-12-07T12:53:24;97957.56;;;10.06
27826;BMP280;15077;49.704;9.908;2022-12-07T12:56:19;97962.56;;;10.07
27826;BMP280;15077;49.704;9.908;2022-12-07T12:58:47;97955.84;;;10.06
27826;BMP280;15077;49.704;9.908;2022-12-07T13:01:42;97950.91;;;10.03
27826;BMP280;15077;49.704;9.908;2022-12-07T13:04:23;97950.91;;;10.03
27826;BMP280;15077;49.704;9.908;2022-12-07T13:06:50;97951.75;;;10.04
27826;BMP280;15077;49.704;9.908;2022-12-07T13:09:27;97951.03;;;10.00
27826;BMP280;15077;49.704;9.908;2022-12-07T13:12:14;97951.28;;;9.94
27826;BMP280;15077;49.704;9.908;2022-12-07T13:14:58;97943.03;;;9.89
27826;BMP280;15077;49.704;9.908;2022-12-07T13:20:06;97935.81;;;9.80
27826;BMP280;15077;49.704;9.908;2022-12-07T13:25:29;97935.94;;;9.77
27826;BMP280;15077;49.704;9.908;2022-12-07T13:28:27;97924.34;;;9.72
27826;BMP280;15077;49.704;9.908;2022-12-07T13:31:51;97936.13;;;9.73
27826;BMP280;15077;49.704;9.908;2022-12-07T13:34:38;97931.09;;;9.71
27826;BMP280;15077;49.704;9.908;2022-12-07T13:37:14;97943.66;;;9.74
27826;BMP280;15077;49.704;9.908;2022-12-07T13:39:51;97936.81;;;9.76
27826;BMP280;15077;49.704;9.908;2022-12-07T13:42:35;97933.53;;;9.74
27826;BMP280;15077;49.704;9.908;2022-12-07T13:45:23;97931.97;;;9.70
27826;BMP280;15077;49.704;9.908;2022-12-07T13:50:55;97925.38;;;9.66
27826;BMP280;15077;49.704;9.908;2022-12-07T13:53:22;97930.63;;;9.62
27826;BMP280;15077;49.704;9.908;2022-12-07T13:55:48;97930.00;;;9.57
27826;BMP280;15077;49.704;9.908;2022-12-07T13:58:14;97927.66;;;9.53
27826;BMP280;15077;49.704;9.908;2022-12-07T14:00:41;97932.81;;;9.50
27826;BMP280;15077;49.704;9.908;2022-12-07T14:05:44;97937.25;;;9.45
27826;BMP280;15077;49.704;9.908;2022-12-07T14:10:41;97934.16;;;9.37
27826;BMP280;15077;49.704;9.908;2022-12-07T14:13:35;97933.81;;;9.24
27826;BMP280;15077;49.704;9.908;2022-12-07T14:16:05;97936.47;;;9.21
27826;BMP280;15077;49.704;9.908;2022-12-07T14:18:43;97935.81;;;9.17
27826;BMP280;15077;49.704;9.908;2022-12-07T14:23:36;97935.75;;;9.18
27826;BMP280;15077;49.704;9.908;2022-12-07T14:26:13;97934.97;;;9.16
27826;BMP280;15077;49.704;9.908;2022-12-07T14:28:42;97948.63;;;9.12
27826;BMP280;15077;49.704;9.908;2022-12-07T14:31:18;97936.94;;;9.10
27826;BMP280;15077;49.704;9.908;2022-12-07T14:33:46;97931.97;;;9.07
27826;BMP280;15077;49.704;9.908;2022-12-07T14:36:14;97929.56;;;9.04
27826;BMP280;15077;49.704;9.908;2022-12-07T14:38:40;97926.31;;;9.00
27826;BMP280;15077;49.704;9.908;2022-12-07T14:41:16;97924.81;;;8.96
27826;BMP280;15077;49.704;9.908;2022-12-07T14:44:16;97925.84;;;8.91
27826;BMP280;15077;49.704;9.908;2022-12-07T14:46:42;97917.63;;;8.86
27826;BMP280;15077;49.704;9.908;2022-12-07T14:49:08;97914.41;;;8.81
27826;BMP280;15077;49.704;9.908;2022-12-07T14:51:38;97918.75;;;8.77
27826;BMP280;15077;49.704;9.908;2022-12-07T14:54:06;97915.47;;;8.75
27826;BMP280;15077;49.704;9.908;2022-12-07T14:56:36;97919.31;;;8.63
27826;BMP280;15077;49.704;9.908;2022-12-07T14:59:02;97910.03;;;8.63
27826;BMP280;15077;49.704;9.908;2022-12-07T15:01:28;97910.13;;;8.60
27826;BMP280;15077;49.704;9.908;2022-12-07T15:03:54;97902.59;;;8.59
27826;BMP280;15077;49.704;9.908;2022-12-07T15:06:19;97906.91;;;8.57
27826;BMP280;15077;49.704;9.908;2022-12-07T15:08:45;97905.28;;;8.54
27826;BMP280;15077;49.704;9.908;2022-12-07T15:11:16;97894.50;;;8.51
27826;BMP280;15077;49.704;9.908;2022-12-07T15:13:42;97892.94;;;8.47
27826;BMP280;15077;49.704;9.908;2022-12-07T15:16:27;97888.91;;;8.41
27826;BMP280;15077;49.704;9.908;2022-12-07T15:18:53;97890.78;;;8.36
27826;BMP280;15077;49.704;9.908;2022-12-07T15:21:18;97894.25;;;8.34
27826;BMP280;15077;49.704;9.908;2022-12-07T15:23:46;97897.66;;;8.33
27826;BMP280;15077;49.704;9.908;2022-12-07T15:26:13;97892.75;;;8.28
27826;BMP280;15077;49.704;9.908;2022-12-07T15:28:40;97895.31;;;8.27
27826;BMP280;15077;49.704;9.908;2022-12-07T15:31:12;97902.13;;;8.25
27826;BMP280;15077;49.704;9.908;2022-12-07T15:33:38;97899.72;;;8.22
27826;BMP280;15077;49.704;9.908;2022-12-07T15:36:05;97901.53;;;8.19
27826;BMP280;15077;49.704;9.908;2022-12-07T15:38:30;97893.16;;;8.17
27826;BMP280;15077;49.704;9.908;2022-12-07T15:40:56;97898.25;;;8.15
27826;BMP280;15077;49.704;9.908;2022-12-07T15:43:22;97897.50;;;8.13
27826;BMP280;15077;49.704;9.908;2022-12-07T15:46:06;97904.28;;;8.11
27826;BMP280;15077;49.704;9.908;2022-12-07T15:48:32;97895.91;;;8.09
27826;BMP280;15077;49.704;9.908;2022-12-07T15:51:08;97893.44;;;8.08
27826;BMP280;15077;49.704;9.908;2022-12-07T15:53:35;97897.69;;;8.07
27826;BMP280;15077;49.704;9.908;2022-12-07T15:56:01;97902.72;;;8.07
27826;BMP280;15077;49.704;9.908;2022-12-07T15:58:31;97894.28;;;8.08
27826;BMP280;15077;49.704;9.908;2022-12-07T16:00:57;97889.25;;;8.08
27826;BMP280;15077;49.704;9.908;2022-12-07T16:03:22;97895.91;;;8.09
27826;BMP280;15077;49.704;9.908;2022-12-07T16:05:50;97890.00;;;8.10
27826;BMP280;15077;49.704;9.908;2022-12-07T16:08:16;97900.91;;;8.11
27826;BMP280;15077;49.704;9.908;2022-12-07T16:10:42;97901.75;;;8.13
27826;BMP280;15077;49.704;9.908;2022-12-07T16:13:10;97889.88;;;8.15
27826;BMP280;15077;49.704;9.908;2022-12-07T16:15:42;97891.47;;;8.17
27826;BMP280;15077;49.704;9.908;2022-12-07T16:18:08;97894.28;;;8.08
27826;BMP280;15077;49.704;9.908;2022-12-07T16:20:34;97898.38;;;8.12
27826;BMP280;15077;49.704;9.908;2022-12-07T16:23:00;97897.41;;;8.16
27826;BMP280;15077;49.704;9.908;2022-12-07T16:25:27;97890.59;;;8.18
27826;BMP280;15077;49.704;9.908;2022-12-07T16:27:53;97892.25;;;8.19
27826;BMP280;15077;49.704;9.908;2022-12-07T16:30:19;97886.28;;;8.22
27826;BMP280;15077;49.704;9.908;2022-12-07T16:32:45;97898.84;;;8.23
27826;BMP280;15077;49.704;9.908;2022-12-07T16:35:11;97897.91;;;8.25